Terminal Aerodrome Forecast
Issued by NWS Riverton, WY

Home | Current Version | Previous Version | Text Only | Print | Product List | Glossary On
Versions: 1 2 3 4 5 6 7 8 9 10 11 12 13 14 15 16 17 18 19 20 21
000
FTUS45 KRIW 241124
TAFRIW
TAF
KRIW 241124Z 2412/2512 03010KT 3SM -SN SCT015 OVC024
     FM241800 VRB06KT 4SM -SN BR SCT018 OVC028
     FM242100 VRB05KT P6SM -SN BKN025
     FM250400 VRB05KT P6SM VCFG FEW005 SCT050 BKN120=

USA.gov is the U.S. government's official web portal to all federal, state and local government web resources and services.